Time;durP1;ratioP1;P1;durP2;ratioP2;P2;SDS_P1;SDS_P2;PMS_P1;PMS_P2;Temp;Humidity;BMP_temperature;BMP_pressure;BME280_temperature;BME280_humidity;BME280_pressure;Samples;Min_cycle;Max_cycle;Signal;HPM_P1;HPM_P2
2022/03/25 00:01:19;;;;;;;47.00;25.83;;;7.80;1.00;;;;;;5074301;28;20305;-59
2022/03/25 00:03:45;;;;;;;49.37;25.47;;;7.80;1.00;;;;;;5073050;28;20268;-60
2022/03/25 00:06:13;;;;;;;49.23;26.20;;;7.70;1.00;;;;;;5073759;28;20234;-60
2022/03/25 00:08:40;;;;;;;53.63;26.47;;;7.60;1.00;;;;;;5074327;28;20298;-60
2022/03/25 00:11:07;;;;;;;50.63;26.17;;;7.50;1.00;;;;;;5073810;28;20277;-60
2022/03/25 00:13:33;;;;;;;50.57;25.43;;;7.50;1.00;;;;;;5074002;28;20263;-60
2022/03/25 00:16:00;;;;;;;54.90;26.40;;;7.50;1.00;;;;;;5073373;28;20223;-59
2022/03/25 00:18:27;;;;;;;47.70;24.80;;;7.50;1.00;;;;;;5073984;28;20211;-60
2022/03/25 00:20:53;;;;;;;51.40;26.20;;;7.50;1.00;;;;;;5074276;28;20294;-59
2022/03/25 00:23:21;;;;;;;49.77;26.00;;;7.50;1.00;;;;;;5073946;28;20794;-60
2022/03/25 00:25:48;;;;;;;48.83;25.33;;;7.50;1.00;;;;;;5073712;28;20229;-60
2022/03/25 00:28:15;;;;;;;52.13;25.77;;;7.50;1.00;;;;;;5073450;28;20209;-60
2022/03/25 00:30:43;;;;;;;54.43;27.03;;;7.50;1.00;;;;;;5073439;28;20227;-60
2022/03/25 00:33:09;;;;;;;52.60;26.90;;;7.40;1.00;;;;;;5073431;28;20209;-60
2022/03/25 00:35:36;;;;;;;52.23;26.43;;;7.30;1.00;;;;;;5073471;28;20280;-60
2022/03/25 00:38:03;;;;;;;55.17;27.07;;;7.30;1.00;;;;;;5072679;28;21003;-60
2022/03/25 00:40:31;;;;;;;46.57;24.90;;;7.30;1.00;;;;;;5073181;28;20729;-60
2022/03/25 00:42:58;;;;;;;52.93;27.23;;;7.30;1.00;;;;;;5073224;28;20205;-59
2022/03/25 00:45:26;;;;;;;46.47;23.60;;;7.20;1.00;;;;;;5072993;28;20295;-60
2022/03/25 00:47:53;;;;;;;50.43;23.67;;;7.20;1.00;;;;;;5072858;28;20215;-60
2022/03/25 00:50:20;;;;;;;47.97;25.17;;;7.20;1.00;;;;;;5073126;28;20222;-61
2022/03/25 00:52:47;;;;;;;50.67;24.67;;;7.20;1.00;;;;;;5073209;28;20209;-61
2022/03/25 00:55:14;;;;;;;53.73;25.57;;;7.10;1.00;;;;;;5072891;28;20282;-61
2022/03/25 00:57:42;;;;;;;45.50;25.13;;;7.10;1.00;;;;;;5072758;28;20307;-61
2022/03/25 01:00:11;;;;;;;48.07;25.60;;;7.10;1.00;;;;;;5072628;28;20459;-61
2022/03/25 01:02:38;;;;;;;50.07;24.13;;;7.00;1.00;;;;;;5072759;28;20208;-61
2022/03/25 01:05:06;;;;;;;52.00;25.70;;;7.00;1.00;;;;;;5072696;28;20224;-61
2022/03/25 01:07:34;;;;;;;48.53;24.03;;;7.00;1.00;;;;;;5072629;28;20234;-61
2022/03/25 01:10:01;;;;;;;48.23;24.50;;;7.00;1.00;;;;;;5072738;28;20688;-61
2022/03/25 01:12:27;;;;;;;51.27;24.33;;;7.00;1.00;;;;;;5072328;28;20560;-60
2022/03/25 01:14:56;;;;;;;47.90;23.60;;;6.90;1.00;;;;;;5072713;28;20470;-61
2022/03/25 01:17:22;;;;;;;49.80;25.73;;;6.80;1.00;;;;;;5072279;28;20204;-61
2022/03/25 01:19:49;;;;;;;49.73;25.43;;;6.70;1.00;;;;;;5072753;28;20210;-61
2022/03/25 01:22:15;;;;;;;46.90;24.50;;;6.70;1.00;;;;;;5072342;28;20478;-60
2022/03/25 01:24:42;;;;;;;47.03;24.10;;;6.60;1.00;;;;;;5072398;28;20538;-61
2022/03/25 01:27:09;;;;;;;45.77;23.97;;;6.60;1.00;;;;;;5071824;28;20452;-61
2022/03/25 01:29:36;;;;;;;47.93;25.30;;;6.60;1.00;;;;;;5072505;28;20538;-61
2022/03/25 01:32:06;;;;;;;49.33;25.00;;;6.50;1.00;;;;;;5072417;28;20509;-61
2022/03/25 01:34:33;;;;;;;52.23;25.80;;;6.40;1.00;;;;;;5072165;28;20459;-60
2022/03/25 01:37:00;;;;;;;52.13;24.63;;;6.40;1.00;;;;;;5071982;28;20455;-57
2022/03/25 01:39:26;;;;;;;46.67;24.80;;;6.30;1.00;;;;;;5071950;28;20447;-61
2022/03/25 01:41:54;;;;;;;46.53;24.00;;;6.30;1.00;;;;;;5072336;28;20447;-61
2022/03/25 01:44:25;;;;;;;45.03;25.10;;;6.30;1.00;;;;;;5072275;28;20888;-61
2022/03/25 01:46:51;;;;;;;50.67;25.30;;;6.30;1.00;;;;;;5071863;28;20532;-61
2022/03/25 01:49:20;;;;;;;51.90;25.33;;;6.30;1.00;;;;;;5072165;28;20458;-61
2022/03/25 01:51:50;;;;;;;50.43;25.40;;;6.30;1.00;;;;;;5071841;28;21062;-60
2022/03/25 01:54:21;;;;;;;51.53;26.87;;;6.30;1.00;;;;;;5072059;28;20518;-59
2022/03/25 01:56:53;;;;;;;49.57;26.20;;;6.30;1.00;;;;;;5071664;28;20463;-61
2022/03/25 01:59:20;;;;;;;46.70;25.30;;;6.20;1.00;;;;;;5072195;28;20447;-61
2022/03/25 02:01:47;;;;;;;51.33;26.53;;;6.20;1.00;;;;;;5071792;28;20945;-61
2022/03/25 02:04:13;;;;;;;48.73;24.47;;;6.20;1.00;;;;;;5071818;28;20961;-61
2022/03/25 02:06:42;;;;;;;49.67;25.70;;;6.10;1.00;;;;;;5071332;28;20475;-61
2022/03/25 02:09:08;;;;;;;52.97;26.83;;;6.10;1.00;;;;;;5072118;28;20811;-61
2022/03/25 02:11:35;;;;;;;53.43;26.43;;;6.10;1.00;;;;;;5071682;28;20490;-60
2022/03/25 02:14:02;;;;;;;48.43;25.10;;;6.20;1.00;;;;;;5071659;28;20538;-61
2022/03/25 02:16:36;;;;;;;46.83;25.27;;;6.10;1.00;;;;;;5071785;28;20471;-60
2022/03/25 02:19:03;;;;;;;51.27;26.70;;;6.10;1.00;;;;;;5071473;28;20443;-61
2022/03/25 02:21:31;;;;;;;50.77;26.10;;;6.10;1.00;;;;;;5071675;28;20853;-61
2022/03/25 02:23:59;;;;;;;52.57;26.60;;;6.10;1.00;;;;;;5071467;28;21020;-59
2022/03/25 02:26:25;;;;;;;50.53;26.83;;;6.00;1.00;;;;;;5071365;28;20466;-60
2022/03/25 02:28:52;;;;;;;50.73;24.00;;;6.00;1.00;;;;;;5074873;28;20442;-61
2022/03/25 02:31:19;;;;;;;50.67;26.40;;;5.90;1.00;;;;;;5075880;28;20478;-60
2022/03/25 02:33:45;;;;;;;58.63;26.50;;;5.90;1.00;;;;;;5075689;28;20509;-60
2022/03/25 02:36:12;;;;;;;55.80;28.63;;;5.90;1.00;;;;;;5075348;28;20475;-60
2022/03/25 02:38:40;;;;;;;49.93;26.50;;;5.90;1.00;;;;;;5075965;28;20442;-61
2022/03/25 02:41:07;;;;;;;56.70;27.13;;;5.90;1.00;;;;;;5075534;28;20450;-61
2022/03/25 02:43:34;;;;;;;50.83;27.20;;;5.80;10.90;;;;;;5075668;28;20443;-61
2022/03/25 02:46:00;;;;;;;52.83;27.03;;;5.80;1.00;;;;;;5074799;28;20532;-60
2022/03/25 02:48:27;;;;;;;55.13;26.63;;;5.80;1.00;;;;;;5075382;28;20509;-61
2022/03/25 02:50:54;;;;;;;50.03;25.67;;;5.80;1.00;;;;;;5075398;28;20447;-61
2022/03/25 02:53:20;;;;;;;56.17;28.63;;;5.80;2.00;;;;;;5075369;28;20504;-61
2022/03/25 02:55:48;;;;;;;53.63;26.40;;;5.70;2.00;;;;;;5075745;28;20476;-60
2022/03/25 02:58:15;;;;;;;58.17;27.30;;;5.60;4.80;;;;;;5074846;28;20806;-60
2022/03/25 03:00:43;;;;;;;56.63;27.63;;;5.70;7.20;;;;;;5075201;28;20521;-61
2022/03/25 03:03:10;;;;;;;56.20;28.07;;;5.60;7.40;;;;;;5074923;28;20483;-61
2022/03/25 03:05:36;;;;;;;49.47;26.60;;;5.60;8.10;;;;;;5075239;28;20475;-61
2022/03/25 03:08:03;;;;;;;54.10;26.13;;;5.60;10.20;;;;;;5074602;28;20998;-61
2022/03/25 03:10:30;;;;;;;48.37;25.47;;;5.60;13.50;;;;;;5075021;28;21111;-61
2022/03/25 03:12:58;;;;;;;53.77;26.93;;;5.60;16.50;;;;;;5074827;28;21000;-61
2022/03/25 03:15:26;;;;;;;51.03;25.07;;;5.60;15.00;;;;;;5074484;28;20477;-61
2022/03/25 03:17:52;;;;;;;53.63;28.13;;;5.70;17.00;;;;;;5074641;28;20455;-56
2022/03/25 03:20:21;;;;;;;55.50;26.50;;;5.70;17.90;;;;;;5074922;28;20447;-60
2022/03/25 03:22:48;;;;;;;49.37;25.47;;;5.70;16.70;;;;;;5074965;28;20526;-60
2022/03/25 03:25:15;;;;;;;53.23;25.83;;;5.60;18.10;;;;;;5074553;28;21044;-58
2022/03/25 03:27:42;;;;;;;54.07;25.33;;;5.60;17.60;;;;;;5074385;28;20869;-61
2022/03/25 03:30:12;;;;;;;49.50;25.47;;;5.70;17.90;;;;;;5074613;28;20849;-59
2022/03/25 03:32:39;;;;;;;46.47;25.53;;;5.70;17.40;;;;;;5074926;28;21312;-60
2022/03/25 03:35:06;;;;;;;47.10;24.83;;;5.80;15.90;;;;;;5074859;28;20474;-60
2022/03/25 03:37:41;;;;;;;54.30;25.80;;;5.80;15.60;;;;;;5074129;28;20520;-59
2022/03/25 03:40:09;;;;;;;43.77;24.23;;;5.80;15.40;;;;;;5074553;28;20481;-61
2022/03/25 03:42:36;;;;;;;49.10;25.33;;;5.90;17.20;;;;;;5074195;28;20949;-61
2022/03/25 03:45:03;;;;;;;51.37;25.33;;;5.90;20.20;;;;;;5074736;28;20532;-57
2022/03/25 03:47:31;;;;;;;53.10;26.10;;;5.90;16.70;;;;;;5074335;28;20439;-60
2022/03/25 03:49:58;;;;;;;51.90;24.77;;;6.00;24.90;;;;;;5074652;28;20858;-57
2022/03/25 03:52:25;;;;;;;47.60;25.50;;;6.00;29.40;;;;;;5074291;28;21000;-58
2022/03/25 03:54:52;;;;;;;50.73;25.60;;;5.90;28.10;;;;;;5074188;28;20486;-61
2022/03/25 03:57:18;;;;;;;54.77;27.33;;;5.90;26.30;;;;;;5073829;28;20455;-61
2022/03/25 03:59:45;;;;;;;50.13;28.10;;;5.70;32.00;;;;;;5074039;28;20949;-60
2022/03/25 04:02:12;;;;;;;53.90;27.90;;;5.60;35.70;;;;;;5074386;28;20500;-61
2022/03/25 04:04:40;;;;;;;49.03;27.03;;;5.50;39.90;;;;;;5074046;28;20501;-60
2022/03/25 04:07:07;;;;;;;50.90;28.40;;;5.50;46.70;;;;;;5073839;28;20444;-57
2022/03/25 04:09:35;;;;;;;53.33;27.00;;;5.30;55.90;;;;;;5073831;28;20457;-62
2022/03/25 04:12:02;;;;;;;54.67;27.53;;;5.30;71.50;;;;;;5074027;28;20493;-60
2022/03/25 04:14:29;;;;;;;59.27;28.73;;;5.20;85.20;;;;;;5073895;28;20987;-60
2022/03/25 04:16:55;;;;;;;50.90;25.93;;;5.20;92.50;;;;;;5073396;28;20473;-59
2022/03/25 04:19:22;;;;;;;50.67;26.83;;;5.10;94.20;;;;;;5073943;28;20793;-60
2022/03/25 04:21:50;;;;;;;55.27;28.20;;;5.10;98.00;;;;;;5073585;28;20449;-58
2022/03/25 04:24:16;;;;;;;53.60;27.57;;;5.10;99.90;;;;;;5073578;28;20447;-60
2022/03/25 04:26:43;;;;;;;54.67;27.03;;;5.00;99.90;;;;;;5073249;28;20463;-59
2022/03/25 04:29:10;;;;;;;49.03;26.17;;;5.00;99.90;;;;;;5073886;28;20447;-60
2022/03/25 04:31:36;;;;;;;51.00;27.17;;;5.00;99.90;;;;;;5073434;28;21030;-61
2022/03/25 04:34:03;;;;;;;52.10;26.70;;;4.90;99.90;;;;;;5073380;28;20449;-61
2022/03/25 04:36:30;;;;;;;54.70;27.40;;;4.90;99.90;;;;;;5073084;28;20465;-61
2022/03/25 04:38:58;;;;;;;54.63;28.83;;;4.90;99.90;;;;;;5073458;28;20533;-61
2022/03/25 04:41:25;;;;;;;51.43;26.53;;;4.80;99.90;;;;;;5073440;28;20515;-61
2022/03/25 04:43:51;;;;;;;51.27;28.03;;;4.80;99.90;;;;;;5073374;28;20446;-61
2022/03/25 04:46:19;;;;;;;55.30;28.63;;;4.80;99.90;;;;;;5072826;28;20531;-61
2022/03/25 04:48:45;;;;;;;53.63;27.83;;;4.80;99.90;;;;;;5073221;28;21024;-61
2022/03/25 04:51:12;;;;;;;54.10;28.47;;;4.80;99.90;;;;;;5072617;28;20500;-61
2022/03/25 04:53:39;;;;;;;55.17;27.90;;;4.80;99.90;;;;;;5073316;28;20494;-61
2022/03/25 04:56:08;;;;;;;54.43;27.23;;;4.80;99.90;;;;;;5072650;28;20504;-61
2022/03/25 04:58:35;;;;;;;50.27;27.93;;;4.80;99.90;;;;;;5073165;28;20513;-60
2022/03/25 05:01:02;;;;;;;55.33;28.00;;;4.80;99.90;;;;;;5072861;28;20880;-59
2022/03/25 05:03:28;;;;;;;53.70;28.30;;;4.80;99.90;;;;;;5072904;28;20450;-60
2022/03/25 05:05:55;;;;;;;58.90;29.00;;;4.80;99.90;;;;;;5072253;28;20463;-60
2022/03/25 05:08:22;;;;;;;55.77;27.73;;;4.90;99.90;;;;;;5073021;28;20542;-60
2022/03/25 05:10:48;;;;;;;54.03;27.27;;;5.00;99.90;;;;;;5072895;28;20534;-59
2022/03/25 05:13:16;;;;;;;52.63;28.67;;;5.10;99.90;;;;;;5072495;28;21057;-59
2022/03/25 05:15:43;;;;;;;60.63;30.70;;;5.00;99.90;;;;;;5072781;28;20474;-61
2022/03/25 05:18:10;;;;;;;54.77;28.47;;;5.00;99.90;;;;;;5072167;28;20454;-61
2022/03/25 05:20:37;;;;;;;53.33;28.67;;;5.00;99.90;;;;;;5072512;28;20453;-59
2022/03/25 05:23:04;;;;;;;54.07;28.37;;;5.00;99.90;;;;;;5072585;28;20447;-58
2022/03/25 05:25:30;;;;;;;54.37;28.00;;;5.00;99.90;;;;;;5072490;28;20513;-61
2022/03/25 05:27:58;;;;;;;52.47;28.60;;;5.00;99.90;;;;;;5072159;28;20446;-61
2022/03/25 05:30:28;;;;;;;58.57;32.10;;;5.00;99.90;;;;;;5072560;28;20459;-65
2022/03/25 05:32:55;;;;;;;55.83;27.93;;;5.00;99.90;;;;;;5072252;28;20861;-58
2022/03/25 05:35:23;;;;;;;54.43;27.73;;;5.00;99.90;;;;;;5072580;28;20838;-58
2022/03/25 05:37:50;;;;;;;55.20;28.80;;;4.90;99.90;;;;;;5072537;28;20521;-61
2022/03/25 05:40:20;;;;;;;57.77;28.10;;;4.90;99.90;;;;;;5072029;28;20447;-60
2022/03/25 05:42:47;;;;;;;55.33;28.67;;;4.90;99.90;;;;;;5072378;28;20448;-62
2022/03/25 05:45:14;;;;;;;53.97;28.33;;;4.90;99.90;;;;;;5071761;28;20886;-61
2022/03/25 05:47:42;;;;;;;54.27;28.50;;;4.80;99.90;;;;;;5071819;28;20456;-60
2022/03/25 05:50:11;;;;;;;50.87;27.60;;;4.80;99.90;;;;;;5069479;28;20448;-61
2022/03/25 05:52:39;;;;;;;51.57;28.50;;;4.70;99.90;;;;;;5053033;28;20520;-60
2022/03/25 05:55:06;;;;;;;61.40;29.50;;;4.70;99.90;;;;;;5051812;28;20555;-61
2022/03/25 05:57:33;;;;;;;55.00;28.27;;;4.70;99.90;;;;;;5051285;28;20448;-59
2022/03/25 06:00:00;;;;;;;54.60;28.57;;;4.80;99.90;;;;;;5051912;28;20452;-59
2022/03/25 06:02:27;;;;;;;52.60;28.13;;;4.90;99.90;;;;;;5050776;28;20504;-60
2022/03/25 06:04:55;;;;;;;53.47;27.83;;;4.90;99.90;;;;;;5051856;28;20467;-58
2022/03/25 06:07:24;;;;;;;54.13;28.07;;;4.90;99.90;;;;;;5051218;28;20543;-60
2022/03/25 06:09:51;;;;;;;55.63;27.43;;;5.00;99.90;;;;;;5051463;28;20452;-61
2022/03/25 06:12:17;;;;;;;52.63;27.33;;;5.00;99.90;;;;;;5051653;28;20839;-60
2022/03/25 06:14:44;;;;;;;51.50;26.33;;;5.10;99.90;;;;;;5051407;28;20452;-58
2022/03/25 06:17:11;;;;;;;58.50;28.10;;;5.10;99.90;;;;;;5051535;28;20463;-57
2022/03/25 06:19:37;;;;;;;60.77;28.10;;;5.20;99.90;;;;;;5051254;28;20495;-58
2022/03/25 06:22:05;;;;;;;56.37;28.20;;;5.30;99.90;;;;;;5051717;28;20868;-58
2022/03/25 06:24:32;;;;;;;56.27;28.53;;;5.30;99.90;;;;;;5050067;28;20512;-63
2022/03/25 06:26:59;;;;;;;57.60;28.47;;;5.30;99.90;;;;;;5049224;28;20458;-61
2022/03/25 06:29:26;;;;;;;54.10;28.77;;;5.40;99.90;;;;;;5051323;28;20461;-61
2022/03/25 06:31:52;;;;;;;55.10;27.23;;;5.50;99.90;;;;;;5050959;28;20451;-61
2022/03/25 06:34:23;;;;;;;51.97;27.33;;;5.60;99.90;;;;;;5051039;28;20448;-63
2022/03/25 06:36:49;;;;;;;56.80;28.37;;;5.60;99.90;;;;;;5050122;28;20486;-62
2022/03/25 06:39:18;;;;;;;55.37;28.57;;;5.70;99.90;;;;;;5051009;28;20459;-62
2022/03/25 06:41:44;;;;;;;56.43;29.67;;;5.80;99.90;;;;;;5050999;28;20452;-62
2022/03/25 06:44:12;;;;;;;59.50;28.37;;;6.00;99.90;;;;;;5050786;28;20474;-62
2022/03/25 06:46:39;;;;;;;54.43;29.60;;;6.00;99.90;;;;;;5050133;28;20542;-62
2022/03/25 06:49:07;;;;;;;57.27;28.93;;;6.20;99.90;;;;;;5050523;28;20920;-62
2022/03/25 06:51:34;;;;;;;53.57;28.53;;;6.20;99.90;;;;;;5050889;28;20463;-62
2022/03/25 06:54:01;;;;;;;60.37;29.10;;;6.30;99.90;;;;;;5050742;28;20487;-62
2022/03/25 06:56:41;;;;;;;52.57;29.17;;;6.40;99.90;;;;;;5049917;28;21056;-67
2022/03/25 06:59:09;;;;;;;54.20;28.90;;;6.60;99.90;;;;;;5050793;28;20459;-67
2022/03/25 07:01:36;;;;;;;54.67;30.23;;;6.80;99.90;;;;;;5050883;28;20881;-66
2022/03/25 07:04:03;;;;;;;55.90;30.23;;;6.90;99.90;;;;;;5062382;28;20450;-67
2022/03/25 07:06:31;;;;;;;53.07;28.33;;;7.00;99.90;;;;;;5069786;28;20479;-67
2022/03/25 07:08:59;;;;;;;59.20;30.50;;;7.10;99.90;;;;;;5070914;28;20859;-67
2022/03/25 07:11:26;;;;;;;59.50;31.57;;;7.20;99.90;;;;;;5070684;28;21031;-68
2022/03/25 07:13:55;;;;;;;57.27;31.37;;;7.30;99.90;;;;;;5071899;28;20225;-65
2022/03/25 07:16:22;;;;;;;54.80;29.73;;;7.40;99.90;;;;;;5073735;28;20264;-65
2022/03/25 07:18:48;;;;;;;56.83;30.17;;;7.60;99.90;;;;;;5074351;28;20212;-65
2022/03/25 07:21:16;;;;;;;59.87;30.10;;;7.70;99.90;;;;;;5074238;28;20202;-63
2022/03/25 07:23:43;;;;;;;49.83;29.27;;;7.80;99.90;;;;;;5074555;28;20207;-64
2022/03/25 07:26:10;;;;;;;54.00;28.70;;;8.00;99.90;;;;;;5059454;28;20323;-64
2022/03/25 07:28:37;;;;;;;56.63;31.70;;;8.10;99.90;;;;;;5054652;28;20266;-64
2022/03/25 07:31:06;;;;;;;51.20;28.63;;;8.30;99.90;;;;;;5054079;28;20215;-64
2022/03/25 07:33:33;;;;;;;56.50;29.33;;;8.30;97.90;;;;;;5054093;28;20726;-64
2022/03/25 07:36:01;;;;;;;54.07;30.00;;;8.40;65.50;;;;;;5064398;28;20223;-64
2022/03/25 07:38:28;;;;;;;58.53;30.80;;;8.50;95.90;;;;;;5074096;28;20253;-64
2022/03/25 07:40:55;;;;;;;51.80;28.30;;;8.70;90.60;;;;;;5059397;28;20727;-63
2022/03/25 07:43:22;;;;;;;51.40;30.23;;;8.80;81.00;;;;;;5053666;28;20204;-63
2022/03/25 07:45:48;;;;;;;53.70;29.73;;;8.90;56.90;;;;;;5053420;28;20230;-65
2022/03/25 07:48:17;;;;;;;54.00;29.80;;;9.00;55.80;;;;;;5052993;28;20202;-65
2022/03/25 07:50:44;;;;;;;52.07;27.63;;;9.10;54.00;;;;;;5053941;28;20263;-60
2022/03/25 07:53:10;;;;;;;53.10;29.30;;;9.20;48.00;;;;;;5053760;28;20237;-62
2022/03/25 07:55:37;;;;;;;58.57;31.87;;;9.40;50.10;;;;;;5052916;28;20238;-63
2022/03/25 07:58:04;;;;;;;55.00;30.53;;;9.50;61.00;;;;;;5053398;28;20206;-64
2022/03/25 08:00:31;;;;;;;55.23;30.60;;;9.60;56.90;;;;;;5053101;28;20209;-63
2022/03/25 08:02:57;;;;;;;52.97;29.17;;;9.70;50.70;;;;;;5053301;28;20565;-64
2022/03/25 08:05:25;;;;;;;54.47;28.63;;;9.80;47.60;;;;;;5052859;28;20715;-64
2022/03/25 08:07:54;;;;;;;57.30;29.83;;;10.00;43.80;;;;;;5052567;28;20672;-64
2022/03/25 08:10:22;;;;;;;47.53;27.37;;;10.20;53.50;;;;;;5063469;28;20202;-62
2022/03/25 08:12:49;;;;;;;47.27;24.13;;;10.40;45.10;;;;;;5052792;28;20222;-64
2022/03/25 08:15:17;;;;;;;38.93;21.40;;;10.60;32.20;;;;;;5062681;28;20217;-65
2022/03/25 08:17:51;;;;;;;39.20;22.03;;;10.70;29.20;;;;;;5072633;28;20854;-66
2022/03/25 08:20:27;;;;;;;40.30;21.00;;;10.70;18.30;;;;;;5073487;28;20217;-65
2022/03/25 08:22:54;;;;;;;31.43;16.33;;;10.80;22.00;;;;;;5073470;28;20216;-65
2022/03/25 08:28:05;;;;;;;38.57;20.77;;;10.90;16.10;;;;;;5072835;28;20200;-65
2022/03/25 08:30:33;;;;;;;40.73;21.67;;;11.00;17.00;;;;;;5073037;28;20209;-65
2022/03/25 08:33:01;;;;;;;27.90;15.73;;;11.20;15.80;;;;;;5073522;28;20252;-67
2022/03/25 08:35:29;;;;;;;44.10;23.20;;;11.20;10.90;;;;;;5072809;28;20229;-67
2022/03/25 08:37:57;;;;;;;46.57;22.27;;;11.30;14.00;;;;;;5072248;28;20238;-64
2022/03/25 08:40:26;;;;;;;37.13;20.00;;;11.30;13.40;;;;;;5072629;28;20207;-64
2022/03/25 08:42:52;;;;;;;46.77;20.93;;;11.40;12.30;;;;;;5072766;28;20645;-66
2022/03/25 08:45:19;;;;;;;42.27;22.07;;;11.60;15.20;;;;;;5072331;28;20634;-66
2022/03/25 08:47:48;;;;;;;42.47;24.00;;;11.80;17.40;;;;;;5072281;28;20207;-66
2022/03/25 08:50:16;;;;;;;43.93;21.63;;;12.10;16.00;;;;;;5072740;28;20214;-64
2022/03/25 08:52:46;;;;;;;45.87;21.77;;;12.10;15.60;;;;;;5072429;28;20301;-65
2022/03/25 08:55:13;;;;;;;44.57;23.03;;;12.20;15.90;;;;;;5071917;28;20236;-65
2022/03/25 08:57:41;;;;;;;51.33;24.27;;;12.30;16.90;;;;;;5072266;28;20206;-65
2022/03/25 09:00:11;;;;;;;45.20;24.00;;;12.40;15.70;;;;;;5072174;28;20214;-64
2022/03/25 09:02:38;;;;;;;42.73;22.60;;;12.50;15.70;;;;;;5072408;28;20212;-65
2022/03/25 09:05:05;;;;;;;44.50;23.83;;;12.70;16.70;;;;;;5071878;28;20228;-64
2022/03/25 09:07:32;;;;;;;39.53;22.93;;;12.90;20.10;;;;;;5071499;28;20209;-65
2022/03/25 09:10:00;;;;;;;;;;;12.90;13.10;;;;;;5072877;28;20063;-64
2022/03/25 09:12:27;;;;;;;;;;;13.10;18.10;;;;;;5072975;28;19920;-64
2022/03/25 09:14:53;;;;;;;;;;;13.20;14.10;;;;;;5072529;28;19924;-64
2022/03/25 09:17:20;;;;;;;;;;;13.30;14.90;;;;;;5071728;28;19920;-65
2022/03/25 09:19:46;;;;;;;;;;;13.40;14.30;;;;;;5072617;28;19982;-64
2022/03/25 09:22:13;;;;;;;;;;;13.50;12.30;;;;;;5071815;28;19931;-64
2022/03/25 09:24:40;;;;;;;;;;;13.60;12.70;;;;;;5052471;28;19920;-65
2022/03/25 09:27:07;;;;;;;;;;;13.60;10.00;;;;;;5051922;28;19924;-66
2022/03/25 09:29:34;;;;;;;;;;;13.70;14.20;;;;;;5052138;28;20280;-64
2022/03/25 09:32:01;;;;;;;;;;;13.80;12.30;;;;;;5052316;28;20437;-67
2022/03/25 09:37:11;;;;;;;;;;;14.20;15.10;;;;;;5051342;28;20405;-66
2022/03/25 09:39:38;;;;;;;;;;;14.20;9.00;;;;;;5052546;28;20023;-67
2022/03/25 09:42:05;;;;;;;;;;;14.30;7.00;;;;;;5051884;28;20337;-67
2022/03/25 09:44:34;;;;;;;;;;;14.30;6.00;;;;;;5052259;28;19924;-67
2022/03/25 09:47:00;;;;;;;;;;;14.40;10.80;;;;;;5050830;28;20012;-66
2022/03/25 09:49:27;;;;;;;;;;;14.50;7.80;;;;;;5052192;28;19979;-62
2022/03/25 09:51:53;;;;;;;;;;;14.60;6.70;;;;;;5052208;28;19932;-67
2022/03/25 09:54:24;;;;;;;;;;;14.70;6.70;;;;;;5051766;28;19932;-66
2022/03/25 09:56:51;;;;;;;31.80;15.57;;;14.80;8.10;;;;;;5051181;28;20221;-66
2022/03/25 09:59:18;;;;;;;32.88;19.90;;;14.70;5.30;;;;;;5049908;28;20419;-67
2022/03/25 10:01:47;;;;;;;41.03;20.88;;;14.80;6.80;;;;;;5050419;28;20417;-66
2022/03/25 10:04:35;;;;;;;33.97;20.63;;;15.00;7.80;;;;;;5050051;28;20421;-66
2022/03/25 10:07:03;;;;;;;30.25;19.05;;;15.30;6.00;;;;;;5049443;28;20872;-67
2022/03/25 10:09:29;;;;;;;33.80;19.02;;;15.20;4.60;;;;;;5050448;28;20443;-66
2022/03/25 10:11:56;;;;;;;39.77;20.63;;;14.90;3.10;;;;;;5050686;28;20228;-66
2022/03/25 10:14:24;;;;;;;;;;;14.90;3.30;;;;;;5071630;28;20106;-68
2022/03/25 10:16:55;;;;;;;31.98;18.35;;;15.10;4.10;;;;;;5068936;28;20444;-68
2022/03/25 10:19:22;;;;;;;;;;;15.20;4.60;;;;;;5071612;28;20080;-68
2022/03/25 10:21:54;;;;;;;31.83;18.25;;;15.30;7.70;;;;;;5069407;28;20962;-65
2022/03/25 10:24:40;;;;;;;;;;;15.50;6.00;;;;;;5071125;28;20475;-65
2022/03/25 10:27:07;;;;;;;;;;;15.50;18.20;;;;;;5070733;28;20294;-65
2022/03/25 10:29:35;;;;;;;29.20;15.83;;;15.30;5.50;;;;;;5070846;28;20221;-65
2022/03/25 10:32:11;;;;;;;29.20;14.13;;;15.20;4.00;;;;;;5071088;28;20205;-65
2022/03/25 10:34:38;;;;;;;;;;;15.20;3.80;;;;;;5070615;28;20051;-65
2022/03/25 10:37:05;;;;;;;;;;;15.10;3.50;;;;;;5070627;28;19920;-66
2022/03/25 10:40:26;;;;;;;;;;;;;;;;;;;;;
2022/03/25 10:43:06;;;;;;;32.80;16.67;;;15.10;4.60;;;;;;5050778;28;20207;-67
2022/03/25 10:45:34;;;;;;;;;;;15.10;5.80;;;;;;5050414;28;20478;-67
2022/03/25 10:48:21;;;;;;;31.00;18.10;;;15.40;8.40;;;;;;5050290;28;20318;-69
2022/03/25 10:50:59;;;;;;;34.38;20.42;;;15.60;19.80;;;;;;5053704;28;20417;-67
2022/03/25 10:53:28;;;;;;;32.42;19.60;;;15.70;9.10;;;;;;5052801;28;20417;-65
2022/03/25 10:55:56;;;;;;;34.40;19.92;;;15.80;9.70;;;;;;5071906;28;20427;-66
2022/03/25 10:58:23;;;;;;;32.53;18.23;;;16.00;14.20;;;;;;5072840;28;20423;-63
2022/03/25 11:00:53;;;;;;;;;;;16.00;8.80;;;;;;5075115;28;20499;-73
2022/03/25 11:03:22;;;;;;;;;;;15.90;8.80;;;;;;5074880;28;19932;-64
2022/03/25 11:05:49;;;;;;;;;;;15.90;7.90;;;;;;5074047;28;20418;-67
2022/03/25 11:08:17;;;;;;;28.70;15.40;;;15.90;7.00;;;;;;5074079;28;20227;-67
2022/03/25 11:10:44;;;;;;;32.97;19.42;;;15.80;7.30;;;;;;5072935;28;20763;-65
2022/03/25 11:13:10;;;;;;;34.00;19.88;;;15.90;8.00;;;;;;5073017;28;20886;-63
2022/03/25 11:15:39;;;;;;;28.73;17.30;;;15.80;8.30;;;;;;5073432;28;20233;-65
2022/03/25 11:18:06;;;;;;;32.47;17.77;;;15.50;5.50;;;;;;5073644;28;20208;-63
2022/03/25 11:20:34;;;;;;;29.47;15.50;;;15.40;5.20;;;;;;5074249;28;20586;-60
2022/03/25 11:23:08;;;;;;;;;;;15.50;5.10;;;;;;5074115;28;20057;-60
2022/03/25 11:25:40;;;;;;;28.60;13.73;;;15.40;4.00;;;;;;5074175;28;20233;-60
2022/03/25 11:28:10;;;;;;;33.22;19.55;;;15.40;5.10;;;;;;5072060;28;20443;-61
2022/03/25 11:30:37;;;;;;;34.33;21.00;;;15.40;4.80;;;;;;5072952;28;20416;-62
2022/03/25 11:33:06;;;;;;;31.07;18.07;;;15.50;5.10;;;;;;5074049;28;20458;-64
2022/03/25 11:35:35;;;;;;;;;;;15.50;5.30;;;;;;5073174;28;20048;-65
2022/03/25 11:38:14;;;;;;;;;;;15.50;5.10;;;;;;5074151;28;19966;-64
2022/03/25 11:40:44;;;;;;;36.20;21.80;;;15.50;6.40;;;;;;5072468;28;20541;-63
2022/03/25 11:43:13;;;;;;;;;;;15.50;4.90;;;;;;5074246;28;20053;-63
2022/03/25 11:45:40;;;;;;;;;;;15.70;6.50;;;;;;5073258;28;19943;-62
2022/03/25 11:48:25;;;;;;;;;;;15.80;7.50;;;;;;5073513;28;19924;-63
2022/03/25 11:50:54;;;;;;;;;;;15.70;5.90;;;;;;5074403;28;20007;-64
2022/03/25 11:53:30;;;;;;;;;;;15.70;5.80;;;;;;5074051;28;19921;-64
2022/03/25 11:55:59;;;;;;;;;;;15.90;6.90;;;;;;5072985;28;19953;-64
2022/03/25 11:58:25;;;;;;;;;;;15.90;8.40;;;;;;5073802;28;20357;-64
2022/03/25 12:00:55;;;;;;;25.60;13.80;;;15.90;9.00;;;;;;5072525;28;20218;-64
2022/03/25 12:03:41;;;;;;;25.60;15.70;;;15.90;7.20;;;;;;5073881;28;20212;-64
2022/03/25 12:06:10;;;;;;;;;;;15.90;6.20;;;;;;5073266;28;20049;-65
2022/03/25 12:08:36;;;;;;;;;;;15.90;6.10;;;;;;5073971;28;20337;-66
2022/03/25 12:11:04;;;;;;;;;;;16.00;5.90;;;;;;5073756;28;19944;-65
2022/03/25 12:14:01;;;;;;;;;;;16.10;7.60;;;;;;5074102;28;19989;-65
2022/03/25 12:16:46;;;;;;;;;;;16.20;7.70;;;;;;5072597;28;19924;-63
2022/03/25 12:19:59;;;;;;;27.23;14.47;;;16.20;7.00;;;;;;5058877;28;20219;-65
2022/03/25 12:22:40;;;;;;;;;;;16.10;7.10;;;;;;5053334;28;20053;-64
2022/03/25 12:25:22;;;;;;;;;;;15.90;5.00;;;;;;5053226;28;19921;-64
2022/03/25 12:27:51;;;;;;;;;;;16.10;8.20;;;;;;5050097;28;20432;-63
2022/03/25 12:30:18;;;;;;;36.17;20.90;;;16.40;9.90;;;;;;5051913;28;20470;-65
2022/03/25 12:32:45;;;;;;;30.45;19.20;;;16.30;7.90;;;;;;5053541;28;20405;-63
2022/03/25 12:35:13;;;;;;;;;;;16.20;7.10;;;;;;5070600;23;20047;-63
2022/03/25 12:37:57;;;;;;;;;;;16.20;5.50;;;;;;5072973;28;19927;-66
2022/03/25 12:40:27;;;;;;;;;;;16.20;7.50;;;;;;5072867;28;19920;-65
2022/03/25 12:42:57;;;;;;;29.90;17.90;;;16.20;5.60;;;;;;5073175;28;20020;-65
2022/03/25 12:45:28;;;;;;;;;;;16.20;5.90;;;;;;5072516;28;20044;-64
2022/03/25 12:47:54;;;;;;;32.03;17.97;;;16.20;6.90;;;;;;5072709;28;20302;-65
2022/03/25 12:50:23;;;;;;;36.13;22.02;;;16.30;8.00;;;;;;5071374;28;20415;-65
2022/03/25 12:52:57;;;;;;;33.00;20.92;;;16.40;9.00;;;;;;5071213;28;20790;-64
2022/03/25 12:55:26;;;;;;;32.83;19.33;;;16.30;7.80;;;;;;5070979;28;20510;-63
2022/03/25 12:57:52;;;;;;;34.85;22.15;;;16.40;6.90;;;;;;5070730;28;20415;-63
2022/03/25 13:00:19;;;;;;;33.80;20.55;;;16.40;9.40;;;;;;5054099;28;20483;-65
2022/03/25 13:02:47;;;;;;;31.17;19.42;;;16.80;11.40;;;;;;5051025;28;20463;-64
2022/03/25 13:05:16;;;;;;;28.65;18.80;;;17.10;12.60;;;;;;5050374;28;20405;-62
2022/03/25 13:07:44;;;;;;;;;;;16.60;7.40;;;;;;5052470;28;20082;-62